sensor_id;sensor_type;location;lat;lon;timestamp;P1;durP1;ratioP1;P2;durP2;ratioP2
18125;SDS011;53956;52.442;13.284;2023-07-20T00:02:16;5.00;;;3.78;;
18125;SDS011;53956;52.442;13.284;2023-07-20T00:04:43;5.47;;;3.88;;
18125;SDS011;53956;52.442;13.284;2023-07-20T00:07:10;4.93;;;3.95;;
18125;SDS011;53956;52.442;13.284;2023-07-20T00:09:36;6.30;;;3.90;;
18125;SDS011;53956;52.442;13.284;2023-07-20T00:12:03;8.68;;;3.83;;
18125;SDS011;53956;52.442;13.284;2023-07-20T00:14:31;5.13;;;3.97;;
18125;SDS011;53956;52.442;13.284;2023-07-20T00:16:58;5.72;;;4.22;;
18125;SDS011;53956;52.442;13.284;2023-07-20T00:19:25;7.97;;;4.25;;
18125;SDS011;53956;52.442;13.284;2023-07-20T00:21:52;6.65;;;4.10;;
18125;SDS011;53956;52.442;13.284;2023-07-20T00:24:19;5.63;;;3.95;;
18125;SDS011;53956;52.442;13.284;2023-07-20T00:26:46;4.53;;;3.72;;
18125;SDS011;53956;52.442;13.284;2023-07-20T00:29:14;6.18;;;4.00;;
18125;SDS011;53956;52.442;13.284;2023-07-20T00:31:42;4.70;;;4.18;;
18125;SDS011;53956;52.442;13.284;2023-07-20T00:34:09;6.07;;;3.90;;
18125;SDS011;53956;52.442;13.284;2023-07-20T00:36:36;5.47;;;4.15;;
18125;SDS011;53956;52.442;13.284;2023-07-20T00:39:02;5.10;;;4.00;;
18125;SDS011;53956;52.442;13.284;2023-07-20T00:41:29;5.10;;;4.18;;
18125;SDS011;53956;52.442;13.284;2023-07-20T00:43:56;4.18;;;3.78;;
18125;SDS011;53956;52.442;13.284;2023-07-20T00:46:23;4.50;;;4.05;;
18125;SDS011;53956;52.442;13.284;2023-07-20T00:48:52;4.45;;;3.97;;
18125;SDS011;53956;52.442;13.284;2023-07-20T00:51:19;6.50;;;4.05;;
18125;SDS011;53956;52.442;13.284;2023-07-20T00:53:47;5.75;;;4.22;;
18125;SDS011;53956;52.442;13.284;2023-07-20T00:56:14;6.13;;;4.38;;
18125;SDS011;53956;52.442;13.284;2023-07-20T00:58:41;5.85;;;4.32;;
18125;SDS011;53956;52.442;13.284;2023-07-20T01:01:08;5.65;;;4.57;;
18125;SDS011;53956;52.442;13.284;2023-07-20T01:03:35;5.53;;;4.38;;
18125;SDS011;53956;52.442;13.284;2023-07-20T01:06:04;4.65;;;4.25;;
18125;SDS011;53956;52.442;13.284;2023-07-20T01:08:38;5.53;;;4.28;;
18125;SDS011;53956;52.442;13.284;2023-07-20T01:11:10;6.57;;;4.75;;
18125;SDS011;53956;52.442;13.284;2023-07-20T01:13:42;6.13;;;4.68;;
18125;SDS011;53956;52.442;13.284;2023-07-20T01:16:10;5.13;;;4.40;;
18125;SDS011;53956;52.442;13.284;2023-07-20T01:18:37;5.70;;;4.60;;
18125;SDS011;53956;52.442;13.284;2023-07-20T01:21:07;5.88;;;4.82;;
18125;SDS011;53956;52.442;13.284;2023-07-20T01:23:47;6.10;;;4.75;;
18125;SDS011;53956;52.442;13.284;2023-07-20T01:26:52;6.25;;;4.80;;
18125;SDS011;53956;52.442;13.284;2023-07-20T01:32:35;6.28;;;4.90;;
18125;SDS011;53956;52.442;13.284;2023-07-20T01:35:04;6.60;;;4.90;;
18125;SDS011;53956;52.442;13.284;2023-07-20T01:37:33;6.50;;;4.90;;
18125;SDS011;53956;52.442;13.284;2023-07-20T01:40:01;7.78;;;5.15;;
18125;SDS011;53956;52.442;13.284;2023-07-20T01:42:27;5.63;;;5.00;;
18125;SDS011;53956;52.442;13.284;2023-07-20T01:44:55;5.68;;;5.05;;
18125;SDS011;53956;52.442;13.284;2023-07-20T01:47:23;6.32;;;5.20;;
18125;SDS011;53956;52.442;13.284;2023-07-20T01:49:50;6.57;;;5.30;;
18125;SDS011;53956;52.442;13.284;2023-07-20T01:52:17;6.38;;;4.97;;
18125;SDS011;53956;52.442;13.284;2023-07-20T01:54:44;5.82;;;5.13;;
18125;SDS011;53956;52.442;13.284;2023-07-20T01:57:10;5.85;;;5.25;;
18125;SDS011;53956;52.442;13.284;2023-07-20T01:59:37;5.53;;;4.75;;
18125;SDS011;53956;52.442;13.284;2023-07-20T02:02:04;5.78;;;5.03;;
18125;SDS011;53956;52.442;13.284;2023-07-20T02:04:30;6.82;;;4.90;;
18125;SDS011;53956;52.442;13.284;2023-07-20T02:06:58;5.93;;;5.03;;
18125;SDS011;53956;52.442;13.284;2023-07-20T02:09:25;5.13;;;4.63;;
18125;SDS011;53956;52.442;13.284;2023-07-20T02:11:52;5.45;;;4.90;;
18125;SDS011;53956;52.442;13.284;2023-07-20T02:14:19;6.40;;;5.60;;
18125;SDS011;53956;52.442;13.284;2023-07-20T02:16:47;6.53;;;5.25;;
18125;SDS011;53956;52.442;13.284;2023-07-20T02:19:20;5.95;;;4.80;;
18125;SDS011;53956;52.442;13.284;2023-07-20T02:21:47;6.22;;;5.30;;
18125;SDS011;53956;52.442;13.284;2023-07-20T02:24:15;7.82;;;5.38;;
18125;SDS011;53956;52.442;13.284;2023-07-20T02:26:41;6.90;;;4.95;;
18125;SDS011;53956;52.442;13.284;2023-07-20T02:29:08;6.10;;;5.07;;
18125;SDS011;53956;52.442;13.284;2023-07-20T02:31:36;7.55;;;4.70;;
18125;SDS011;53956;52.442;13.284;2023-07-20T02:34:04;6.32;;;4.85;;
18125;SDS011;53956;52.442;13.284;2023-07-20T02:36:31;6.68;;;5.47;;
18125;SDS011;53956;52.442;13.284;2023-07-20T02:38:58;6.55;;;5.10;;
18125;SDS011;53956;52.442;13.284;2023-07-20T02:41:27;6.25;;;4.88;;
18125;SDS011;53956;52.442;13.284;2023-07-20T02:43:54;6.05;;;5.45;;
18125;SDS011;53956;52.442;13.284;2023-07-20T02:46:21;6.25;;;5.32;;
18125;SDS011;53956;52.442;13.284;2023-07-20T02:48:48;6.78;;;4.90;;
18125;SDS011;53956;52.442;13.284;2023-07-20T02:51:15;6.43;;;5.65;;
18125;SDS011;53956;52.442;13.284;2023-07-20T02:53:41;6.85;;;5.32;;
18125;SDS011;53956;52.442;13.284;2023-07-20T02:56:08;7.15;;;5.95;;
18125;SDS011;53956;52.442;13.284;2023-07-20T02:58:39;10.57;;;5.82;;
18125;SDS011;53956;52.442;13.284;2023-07-20T03:01:10;8.45;;;6.10;;
18125;SDS011;53956;52.442;13.284;2023-07-20T03:03:37;10.10;;;7.10;;
18125;SDS011;53956;52.442;13.284;2023-07-20T03:06:04;9.23;;;7.00;;
18125;SDS011;53956;52.442;13.284;2023-07-20T03:08:31;11.40;;;7.30;;
18125;SDS011;53956;52.442;13.284;2023-07-20T03:10:58;7.97;;;7.18;;
18125;SDS011;53956;52.442;13.284;2023-07-20T03:13:24;8.23;;;7.40;;
18125;SDS011;53956;52.442;13.284;2023-07-20T03:15:53;11.45;;;8.05;;
18125;SDS011;53956;52.442;13.284;2023-07-20T03:18:21;8.40;;;7.47;;
18125;SDS011;53956;52.442;13.284;2023-07-20T03:20:48;10.30;;;7.93;;
18125;SDS011;53956;52.442;13.284;2023-07-20T03:23:15;8.85;;;7.60;;
18125;SDS011;53956;52.442;13.284;2023-07-20T03:25:42;11.13;;;8.00;;
18125;SDS011;53956;52.442;13.284;2023-07-20T03:28:08;8.18;;;7.20;;
18125;SDS011;53956;52.442;13.284;2023-07-20T03:30:35;8.90;;;8.00;;
18125;SDS011;53956;52.442;13.284;2023-07-20T03:33:03;9.23;;;7.82;;
18125;SDS011;53956;52.442;13.284;2023-07-20T03:35:30;10.98;;;8.07;;
18125;SDS011;53956;52.442;13.284;2023-07-20T03:37:56;10.68;;;8.00;;
18125;SDS011;53956;52.442;13.284;2023-07-20T03:40:23;9.88;;;8.18;;
18125;SDS011;53956;52.442;13.284;2023-07-20T03:42:50;9.57;;;7.55;;
18125;SDS011;53956;52.442;13.284;2023-07-20T03:45:17;11.20;;;8.05;;
18125;SDS011;53956;52.442;13.284;2023-07-20T03:47:44;10.25;;;7.75;;
18125;SDS011;53956;52.442;13.284;2023-07-20T03:50:14;11.10;;;8.20;;
18125;SDS011;53956;52.442;13.284;2023-07-20T03:52:41;11.52;;;8.07;;
18125;SDS011;53956;52.442;13.284;2023-07-20T03:55:08;11.38;;;8.23;;
18125;SDS011;53956;52.442;13.284;2023-07-20T03:57:35;10.35;;;8.55;;
18125;SDS011;53956;52.442;13.284;2023-07-20T04:00:02;10.60;;;8.07;;
18125;SDS011;53956;52.442;13.284;2023-07-20T04:02:38;11.68;;;8.80;;
18125;SDS011;53956;52.442;13.284;2023-07-20T04:05:04;11.40;;;8.73;;
18125;SDS011;53956;52.442;13.284;2023-07-20T04:07:33;12.73;;;8.77;;
18125;SDS011;53956;52.442;13.284;2023-07-20T04:10:00;15.07;;;9.20;;
18125;SDS011;53956;52.442;13.284;2023-07-20T04:12:27;9.43;;;8.27;;
18125;SDS011;53956;52.442;13.284;2023-07-20T04:14:53;10.70;;;8.82;;
18125;SDS011;53956;52.442;13.284;2023-07-20T04:17:20;11.05;;;8.57;;
18125;SDS011;53956;52.442;13.284;2023-07-20T04:19:47;10.48;;;8.75;;
18125;SDS011;53956;52.442;13.284;2023-07-20T04:22:13;10.30;;;8.10;;
18125;SDS011;53956;52.442;13.284;2023-07-20T04:24:42;9.82;;;8.68;;
18125;SDS011;53956;52.442;13.284;2023-07-20T04:27:09;11.07;;;8.77;;
18125;SDS011;53956;52.442;13.284;2023-07-20T04:29:35;11.80;;;8.52;;
18125;SDS011;53956;52.442;13.284;2023-07-20T04:32:02;11.75;;;8.93;;
18125;SDS011;53956;52.442;13.284;2023-07-20T04:34:29;8.95;;;8.05;;
18125;SDS011;53956;52.442;13.284;2023-07-20T04:36:56;13.68;;;8.50;;
18125;SDS011;53956;52.442;13.284;2023-07-20T04:39:26;11.70;;;8.43;;
18125;SDS011;53956;52.442;13.284;2023-07-20T04:41:54;10.32;;;7.93;;
18125;SDS011;53956;52.442;13.284;2023-07-20T04:44:21;10.88;;;8.52;;
18125;SDS011;53956;52.442;13.284;2023-07-20T04:46:47;12.00;;;8.68;;
18125;SDS011;53956;52.442;13.284;2023-07-20T04:49:14;13.27;;;8.35;;
18125;SDS011;53956;52.442;13.284;2023-07-20T04:51:43;9.23;;;8.20;;
18125;SDS011;53956;52.442;13.284;2023-07-20T04:54:10;11.43;;;9.10;;
18125;SDS011;53956;52.442;13.284;2023-07-20T04:56:37;11.38;;;8.50;;
18125;SDS011;53956;52.442;13.284;2023-07-20T04:59:09;9.57;;;8.60;;
18125;SDS011;53956;52.442;13.284;2023-07-20T05:01:36;9.85;;;7.78;;
18125;SDS011;53956;52.442;13.284;2023-07-20T05:04:02;10.57;;;8.27;;
18125;SDS011;53956;52.442;13.284;2023-07-20T05:06:29;11.27;;;7.90;;
18125;SDS011;53956;52.442;13.284;2023-07-20T05:08:56;10.45;;;7.53;;
18125;SDS011;53956;52.442;13.284;2023-07-20T05:11:23;9.20;;;8.30;;
18125;SDS011;53956;52.442;13.284;2023-07-20T05:13:50;8.35;;;7.55;;
18125;SDS011;53956;52.442;13.284;2023-07-20T05:16:18;8.80;;;7.47;;
18125;SDS011;53956;52.442;13.284;2023-07-20T05:18:46;7.88;;;7.05;;
18125;SDS011;53956;52.442;13.284;2023-07-20T05:21:13;7.97;;;7.25;;
18125;SDS011;53956;52.442;13.284;2023-07-20T05:23:39;8.93;;;6.85;;
18125;SDS011;53956;52.442;13.284;2023-07-20T05:26:06;7.53;;;6.50;;
18125;SDS011;53956;52.442;13.284;2023-07-20T05:28:32;9.05;;;6.75;;
18125;SDS011;53956;52.442;13.284;2023-07-20T05:30:59;7.57;;;6.88;;
18125;SDS011;53956;52.442;13.284;2023-07-20T05:33:30;10.77;;;7.13;;
18125;SDS011;53956;52.442;13.284;2023-07-20T05:35:56;10.32;;;7.28;;
18125;SDS011;53956;52.442;13.284;2023-07-20T05:38:23;7.85;;;6.55;;
18125;SDS011;53956;52.442;13.284;2023-07-20T05:40:50;7.68;;;6.88;;
18125;SDS011;53956;52.442;13.284;2023-07-20T05:43:16;7.57;;;6.78;;
18125;SDS011;53956;52.442;13.284;2023-07-20T05:45:43;8.63;;;7.20;;
18125;SDS011;53956;52.442;13.284;2023-07-20T05:48:11;9.20;;;7.82;;
18125;SDS011;53956;52.442;13.284;2023-07-20T05:50:41;9.95;;;7.43;;
18125;SDS011;53956;52.442;13.284;2023-07-20T05:53:08;9.88;;;7.85;;
18125;SDS011;53956;52.442;13.284;2023-07-20T05:55:35;8.50;;;7.25;;
18125;SDS011;53956;52.442;13.284;2023-07-20T05:58:01;9.43;;;7.72;;
18125;SDS011;53956;52.442;13.284;2023-07-20T06:00:29;9.80;;;7.45;;
18125;SDS011;53956;52.442;13.284;2023-07-20T06:02:55;8.82;;;7.20;;
18125;SDS011;53956;52.442;13.284;2023-07-20T06:05:22;9.65;;;7.30;;
18125;SDS011;53956;52.442;13.284;2023-07-20T06:07:50;10.27;;;8.15;;
18125;SDS011;53956;52.442;13.284;2023-07-20T06:10:17;9.68;;;7.35;;
18125;SDS011;53956;52.442;13.284;2023-07-20T06:12:44;10.70;;;8.02;;
18125;SDS011;53956;52.442;13.284;2023-07-20T06:15:23;9.02;;;7.40;;
18125;SDS011;53956;52.442;13.284;2023-07-20T06:17:53;10.25;;;7.00;;
18125;SDS011;53956;52.442;13.284;2023-07-20T06:20:21;9.70;;;7.93;;
18125;SDS011;53956;52.442;13.284;2023-07-20T06:22:48;10.68;;;8.73;;
18125;SDS011;53956;52.442;13.284;2023-07-20T06:25:16;9.68;;;7.72;;
18125;SDS011;53956;52.442;13.284;2023-07-20T06:27:43;9.68;;;7.88;;
18125;SDS011;53956;52.442;13.284;2023-07-20T06:30:10;11.75;;;8.10;;
18125;SDS011;53956;52.442;13.284;2023-07-20T06:32:37;10.63;;;7.35;;
18125;SDS011;53956;52.442;13.284;2023-07-20T06:35:04;9.40;;;6.90;;
18125;SDS011;53956;52.442;13.284;2023-07-20T06:37:33;11.07;;;6.88;;
18125;SDS011;53956;52.442;13.284;2023-07-20T06:40:00;9.15;;;5.85;;
18125;SDS011;53956;52.442;13.284;2023-07-20T06:42:30;8.27;;;5.15;;
18125;SDS011;53956;52.442;13.284;2023-07-20T06:44:56;8.18;;;4.95;;
18125;SDS011;53956;52.442;13.284;2023-07-20T06:47:23;6.93;;;4.88;;
18125;SDS011;53956;52.442;13.284;2023-07-20T06:49:50;6.20;;;4.07;;
18125;SDS011;53956;52.442;13.284;2023-07-20T06:52:16;5.63;;;3.83;;
18125;SDS011;53956;52.442;13.284;2023-07-20T06:54:43;6.38;;;3.58;;
18125;SDS011;53956;52.442;13.284;2023-07-20T06:57:10;6.53;;;3.33;;
18125;SDS011;53956;52.442;13.284;2023-07-20T06:59:37;4.13;;;3.15;;
18125;SDS011;53956;52.442;13.284;2023-07-20T07:02:04;4.70;;;3.45;;
18125;SDS011;53956;52.442;13.284;2023-07-20T07:04:31;6.10;;;2.72;;
18125;SDS011;53956;52.442;13.284;2023-07-20T07:06:58;2.97;;;2.75;;
18125;SDS011;53956;52.442;13.284;2023-07-20T07:09:25;4.05;;;2.70;;
18125;SDS011;53956;52.442;13.284;2023-07-20T07:11:52;4.10;;;2.40;;
18125;SDS011;53956;52.442;13.284;2023-07-20T07:14:19;1.85;;;1.75;;
18125;SDS011;53956;52.442;13.284;2023-07-20T07:16:48;3.53;;;2.10;;
18125;SDS011;53956;52.442;13.284;2023-07-20T07:19:14;3.65;;;1.70;;
18125;SDS011;53956;52.442;13.284;2023-07-20T07:21:41;4.90;;;2.15;;
18125;SDS011;53956;52.442;13.284;2023-07-20T07:24:07;3.30;;;1.83;;
18125;SDS011;53956;52.442;13.284;2023-07-20T07:26:35;5.13;;;1.65;;
18125;SDS011;53956;52.442;13.284;2023-07-20T07:29:01;2.88;;;1.40;;
18125;SDS011;53956;52.442;13.284;2023-07-20T07:31:28;1.30;;;1.20;;
18125;SDS011;53956;52.442;13.284;2023-07-20T07:33:56;3.28;;;1.30;;
18125;SDS011;53956;52.442;13.284;2023-07-20T07:36:23;3.20;;;1.10;;
18125;SDS011;53956;52.442;13.284;2023-07-20T07:38:50;7.45;;;2.00;;
18125;SDS011;53956;52.442;13.284;2023-07-20T07:41:16;4.70;;;2.45;;
18125;SDS011;53956;52.442;13.284;2023-07-20T07:43:43;3.97;;;1.40;;
18125;SDS011;53956;52.442;13.284;2023-07-20T07:46:10;1.50;;;1.20;;
18125;SDS011;53956;52.442;13.284;2023-07-20T07:48:36;3.97;;;1.60;;
18125;SDS011;53956;52.442;13.284;2023-07-20T07:51:04;3.17;;;1.30;;
18125;SDS011;53956;52.442;13.284;2023-07-20T07:53:31;1.88;;;1.20;;
18125;SDS011;53956;52.442;13.284;2023-07-20T07:55:58;1.83;;;1.20;;
18125;SDS011;53956;52.442;13.284;2023-07-20T07:58:25;2.25;;;0.90;;
18125;SDS011;53956;52.442;13.284;2023-07-20T08:00:52;2.05;;;1.00;;
18125;SDS011;53956;52.442;13.284;2023-07-20T08:03:19;2.90;;;1.20;;
18125;SDS011;53956;52.442;13.284;2023-07-20T08:05:46;1.48;;;1.10;;
18125;SDS011;53956;52.442;13.284;2023-07-20T08:08:14;1.58;;;1.00;;
18125;SDS011;53956;52.442;13.284;2023-07-20T08:10:41;1.73;;;1.00;;
18125;SDS011;53956;52.442;13.284;2023-07-20T08:13:07;2.22;;;0.90;;
18125;SDS011;53956;52.442;13.284;2023-07-20T08:15:34;3.17;;;1.10;;
18125;SDS011;53956;52.442;13.284;2023-07-20T08:18:01;3.30;;;1.10;;
18125;SDS011;53956;52.442;13.284;2023-07-20T08:20:28;1.55;;;1.10;;
18125;SDS011;53956;52.442;13.284;2023-07-20T08:22:55;2.38;;;1.08;;
18125;SDS011;53956;52.442;13.284;2023-07-20T08:25:24;1.27;;;1.10;;
18125;SDS011;53956;52.442;13.284;2023-07-20T08:27:51;0.77;;;0.77;;
18125;SDS011;53956;52.442;13.284;2023-07-20T08:30:20;2.22;;;1.00;;
18125;SDS011;53956;52.442;13.284;2023-07-20T08:32:48;1.60;;;1.08;;
18125;SDS011;53956;52.442;13.284;2023-07-20T08:35:15;1.25;;;1.00;;
18125;SDS011;53956;52.442;13.284;2023-07-20T08:37:42;1.83;;;1.00;;
18125;SDS011;53956;52.442;13.284;2023-07-20T08:40:09;1.00;;;1.00;;
18125;SDS011;53956;52.442;13.284;2023-07-20T08:42:39;1.27;;;1.00;;
18125;SDS011;53956;52.442;13.284;2023-07-20T08:45:06;4.18;;;1.10;;
18125;SDS011;53956;52.442;13.284;2023-07-20T08:47:35;2.17;;;0.88;;
18125;SDS011;53956;52.442;13.284;2023-07-20T08:50:02;2.05;;;0.93;;
18125;SDS011;53956;52.442;13.284;2023-07-20T08:52:32;1.52;;;0.90;;
18125;SDS011;53956;52.442;13.284;2023-07-20T08:55:00;1.98;;;0.90;;
18125;SDS011;53956;52.442;13.284;2023-07-20T08:57:28;1.20;;;0.70;;
18125;SDS011;53956;52.442;13.284;2023-07-20T08:59:59;2.45;;;0.90;;
18125;SDS011;53956;52.442;13.284;2023-07-20T09:02:29;1.60;;;0.70;;
18125;SDS011;53956;52.442;13.284;2023-07-20T09:05:01;0.80;;;0.70;;
18125;SDS011;53956;52.442;13.284;2023-07-20T09:07:28;1.83;;;0.80;;
18125;SDS011;53956;52.442;13.284;2023-07-20T09:09:56;1.00;;;0.80;;
18125;SDS011;53956;52.442;13.284;2023-07-20T09:12:23;1.55;;;1.00;;
18125;SDS011;53956;52.442;13.284;2023-07-20T09:14:50;1.80;;;0.60;;
18125;SDS011;53956;52.442;13.284;2023-07-20T09:17:18;2.83;;;0.70;;
18125;SDS011;53956;52.442;13.284;2023-07-20T09:19:48;1.85;;;0.85;;
18125;SDS011;53956;52.442;13.284;2023-07-20T09:22:14;1.95;;;0.90;;
18125;SDS011;53956;52.442;13.284;2023-07-20T09:24:42;1.13;;;0.70;;
18125;SDS011;53956;52.442;13.284;2023-07-20T09:27:09;2.63;;;0.80;;
18125;SDS011;53956;52.442;13.284;2023-07-20T09:29:42;2.05;;;1.00;;
18125;SDS011;53956;52.442;13.284;2023-07-20T09:32:13;1.15;;;0.80;;
18125;SDS011;53956;52.442;13.284;2023-07-20T09:34:46;3.45;;;0.90;;
18125;SDS011;53956;52.442;13.284;2023-07-20T09:37:13;0.95;;;0.90;;
18125;SDS011;53956;52.442;13.284;2023-07-20T09:39:43;1.00;;;0.80;;
18125;SDS011;53956;52.442;13.284;2023-07-20T09:42:10;1.35;;;0.90;;
18125;SDS011;53956;52.442;13.284;2023-07-20T09:44:38;1.33;;;1.00;;
18125;SDS011;53956;52.442;13.284;2023-07-20T09:47:04;1.00;;;0.90;;
18125;SDS011;53956;52.442;13.284;2023-07-20T09:49:33;3.25;;;1.15;;
18125;SDS011;53956;52.442;13.284;2023-07-20T09:52:05;1.90;;;1.13;;
18125;SDS011;53956;52.442;13.284;2023-07-20T09:54:33;2.20;;;1.08;;
18125;SDS011;53956;52.442;13.284;2023-07-20T09:57:00;1.33;;;0.90;;
18125;SDS011;53956;52.442;13.284;2023-07-20T09:59:28;1.98;;;1.10;;
18125;SDS011;53956;52.442;13.284;2023-07-20T10:01:54;1.98;;;1.20;;
18125;SDS011;53956;52.442;13.284;2023-07-20T10:04:24;1.67;;;1.10;;
18125;SDS011;53956;52.442;13.284;2023-07-20T10:06:54;5.05;;;1.77;;
18125;SDS011;53956;52.442;13.284;2023-07-20T10:09:21;3.60;;;2.28;;
18125;SDS011;53956;52.442;13.284;2023-07-20T10:11:50;5.45;;;3.10;;
18125;SDS011;53956;52.442;13.284;2023-07-20T10:14:19;9.38;;;4.90;;
18125;SDS011;53956;52.442;13.284;2023-07-20T10:16:50;2.17;;;1.75;;
18125;SDS011;53956;52.442;13.284;2023-07-20T10:19:19;4.80;;;2.28;;
18125;SDS011;53956;52.442;13.284;2023-07-20T10:21:51;4.05;;;1.75;;
18125;SDS011;53956;52.442;13.284;2023-07-20T10:24:23;5.22;;;2.38;;
18125;SDS011;53956;52.442;13.284;2023-07-20T10:26:50;7.65;;;2.05;;
18125;SDS011;53956;52.442;13.284;2023-07-20T10:29:17;2.40;;;1.40;;
18125;SDS011;53956;52.442;13.284;2023-07-20T10:31:44;3.47;;;1.80;;
18125;SDS011;53956;52.442;13.284;2023-07-20T10:34:11;3.83;;;2.40;;
18125;SDS011;53956;52.442;13.284;2023-07-20T10:36:43;6.25;;;2.80;;
18125;SDS011;53956;52.442;13.284;2023-07-20T10:39:14;4.60;;;1.80;;
18125;SDS011;53956;52.442;13.284;2023-07-20T10:41:48;1.88;;;1.40;;
18125;SDS011;53956;52.442;13.284;2023-07-20T10:44:15;5.43;;;2.33;;
18125;SDS011;53956;52.442;13.284;2023-07-20T10:46:46;7.53;;;3.22;;
18125;SDS011;53956;52.442;13.284;2023-07-20T10:49:13;3.88;;;2.67;;
18125;SDS011;53956;52.442;13.284;2023-07-20T10:51:41;3.65;;;2.17;;
18125;SDS011;53956;52.442;13.284;2023-07-20T10:54:10;6.72;;;4.80;;
18125;SDS011;53956;52.442;13.284;2023-07-20T10:57:22;2.60;;;1.40;;
18125;SDS011;53956;52.442;13.284;2023-07-20T10:59:50;3.88;;;1.80;;
18125;SDS011;53956;52.442;13.284;2023-07-20T11:02:17;2.33;;;1.23;;
18125;SDS011;53956;52.442;13.284;2023-07-20T11:04:46;2.80;;;1.45;;
18125;SDS011;53956;52.442;13.284;2023-07-20T11:07:17;3.40;;;1.65;;
18125;SDS011;53956;52.442;13.284;2023-07-20T11:09:44;4.40;;;1.73;;
18125;SDS011;53956;52.442;13.284;2023-07-20T11:12:12;3.00;;;1.10;;
18125;SDS011;53956;52.442;13.284;2023-07-20T11:14:41;2.42;;;1.55;;
18125;SDS011;53956;52.442;13.284;2023-07-20T11:17:11;4.10;;;1.50;;
18125;SDS011;53956;52.442;13.284;2023-07-20T11:19:39;2.58;;;1.38;;
18125;SDS011;53956;52.442;13.284;2023-07-20T11:22:06;4.65;;;1.30;;
18125;SDS011;53956;52.442;13.284;2023-07-20T11:24:34;2.75;;;1.45;;
18125;SDS011;53956;52.442;13.284;2023-07-20T11:27:04;1.73;;;1.00;;
18125;SDS011;53956;52.442;13.284;2023-07-20T11:29:34;1.15;;;1.05;;
18125;SDS011;53956;52.442;13.284;2023-07-20T11:32:01;2.15;;;1.40;;
18125;SDS011;53956;52.442;13.284;2023-07-20T11:34:29;2.72;;;1.52;;
18125;SDS011;53956;52.442;13.284;2023-07-20T11:36:57;2.42;;;1.10;;
18125;SDS011;53956;52.442;13.284;2023-07-20T11:39:24;1.58;;;1.20;;
18125;SDS011;53956;52.442;13.284;2023-07-20T11:41:51;3.75;;;1.50;;
18125;SDS011;53956;52.442;13.284;2023-07-20T11:44:19;2.22;;;1.10;;
18125;SDS011;53956;52.442;13.284;2023-07-20T11:46:58;3.42;;;1.45;;
18125;SDS011;53956;52.442;13.284;2023-07-20T11:49:26;3.15;;;1.10;;
18125;SDS011;53956;52.442;13.284;2023-07-20T11:51:53;1.52;;;1.10;;
18125;SDS011;53956;52.442;13.284;2023-07-20T11:54:19;1.85;;;1.20;;
18125;SDS011;53956;52.442;13.284;2023-07-20T11:56:46;1.10;;;1.00;;
18125;SDS011;53956;52.442;13.284;2023-07-20T11:59:13;1.33;;;0.90;;
18125;SDS011;53956;52.442;13.284;2023-07-20T12:01:39;3.25;;;1.02;;
18125;SDS011;53956;52.442;13.284;2023-07-20T12:04:08;1.33;;;1.15;;
18125;SDS011;53956;52.442;13.284;2023-07-20T12:06:35;2.15;;;1.10;;
18125;SDS011;53956;52.442;13.284;2023-07-20T12:09:02;1.40;;;0.85;;
18125;SDS011;53956;52.442;13.284;2023-07-20T12:11:32;1.55;;;0.90;;
18125;SDS011;53956;52.442;13.284;2023-07-20T12:14:00;1.63;;;0.90;;
18125;SDS011;53956;52.442;13.284;2023-07-20T12:16:28;1.83;;;0.90;;
18125;SDS011;53956;52.442;13.284;2023-07-20T12:19:01;1.48;;;1.20;;
18125;SDS011;53956;52.442;13.284;2023-07-20T12:21:29;1.33;;;0.70;;
18125;SDS011;53956;52.442;13.284;2023-07-20T12:23:57;0.82;;;0.80;;
18125;SDS011;53956;52.442;13.284;2023-07-20T12:26:24;1.63;;;0.77;;
18125;SDS011;53956;52.442;13.284;2023-07-20T12:28:52;1.10;;;0.70;;
18125;SDS011;53956;52.442;13.284;2023-07-20T12:31:18;1.38;;;0.95;;
18125;SDS011;53956;52.442;13.284;2023-07-20T12:33:46;3.00;;;0.90;;
18125;SDS011;53956;52.442;13.284;2023-07-20T12:36:13;2.65;;;0.90;;
18125;SDS011;53956;52.442;13.284;2023-07-20T12:38:41;1.60;;;1.08;;
18125;SDS011;53956;52.442;13.284;2023-07-20T12:41:09;1.38;;;0.80;;
18125;SDS011;53956;52.442;13.284;2023-07-20T12:43:37;2.78;;;0.70;;
18125;SDS011;53956;52.442;13.284;2023-07-20T12:46:05;0.98;;;0.68;;
18125;SDS011;53956;52.442;13.284;2023-07-20T12:48:31;1.60;;;0.80;;
18125;SDS011;53956;52.442;13.284;2023-07-20T12:50:58;1.35;;;0.77;;
18125;SDS011;53956;52.442;13.284;2023-07-20T12:53:25;1.25;;;0.88;;
18125;SDS011;53956;52.442;13.284;2023-07-20T12:55:53;3.03;;;0.82;;
18125;SDS011;53956;52.442;13.284;2023-07-20T12:58:20;2.22;;;0.60;;
18125;SDS011;53956;52.442;13.284;2023-07-20T13:00:46;0.93;;;0.80;;
18125;SDS011;53956;52.442;13.284;2023-07-20T13:03:13;1.95;;;0.70;;
18125;SDS011;53956;52.442;13.284;2023-07-20T13:05:41;1.40;;;0.60;;
18125;SDS011;53956;52.442;13.284;2023-07-20T13:08:07;1.55;;;0.68;;
18125;SDS011;53956;52.442;13.284;2023-07-20T13:10:34;0.77;;;0.70;;
18125;SDS011;53956;52.442;13.284;2023-07-20T13:13:02;0.85;;;0.60;;
18125;SDS011;53956;52.442;13.284;2023-07-20T13:15:29;1.50;;;0.70;;
18125;SDS011;53956;52.442;13.284;2023-07-20T13:17:57;2.15;;;0.60;;
18125;SDS011;53956;52.442;13.284;2023-07-20T13:20:25;1.20;;;0.60;;
18125;SDS011;53956;52.442;13.284;2023-07-20T13:22:53;2.17;;;0.55;;
18125;SDS011;53956;52.442;13.284;2023-07-20T13:25:19;1.95;;;0.75;;
18125;SDS011;53956;52.442;13.284;2023-07-20T13:27:46;0.93;;;0.70;;
18125;SDS011;53956;52.442;13.284;2023-07-20T13:30:14;2.22;;;0.85;;
18125;SDS011;53956;52.442;13.284;2023-07-20T13:32:42;1.40;;;0.68;;
18125;SDS011;53956;52.442;13.284;2023-07-20T13:35:09;0.75;;;0.73;;
18125;SDS011;53956;52.442;13.284;2023-07-20T13:37:35;3.90;;;0.75;;
18125;SDS011;53956;52.442;13.284;2023-07-20T13:40:02;2.10;;;0.70;;
18125;SDS011;53956;52.442;13.284;2023-07-20T13:42:30;2.15;;;0.70;;
18125;SDS011;53956;52.442;13.284;2023-07-20T13:44:56;3.10;;;0.80;;
18125;SDS011;53956;52.442;13.284;2023-07-20T13:47:25;3.67;;;0.80;;
18125;SDS011;53956;52.442;13.284;2023-07-20T13:49:53;8.68;;;1.33;;
18125;SDS011;53956;52.442;13.284;2023-07-20T13:52:19;0.70;;;0.70;;
18125;SDS011;53956;52.442;13.284;2023-07-20T13:54:46;1.70;;;0.80;;
18125;SDS011;53956;52.442;13.284;2023-07-20T13:57:13;3.00;;;0.90;;
18125;SDS011;53956;52.442;13.284;2023-07-20T13:59:40;1.58;;;0.90;;
18125;SDS011;53956;52.442;13.284;2023-07-20T14:02:06;1.00;;;0.70;;
18125;SDS011;53956;52.442;13.284;2023-07-20T14:04:34;5.15;;;0.85;;
18125;SDS011;53956;52.442;13.284;2023-07-20T14:07:01;1.85;;;0.80;;
18125;SDS011;53956;52.442;13.284;2023-07-20T14:09:28;1.65;;;0.80;;
18125;SDS011;53956;52.442;13.284;2023-07-20T14:11:54;1.35;;;0.70;;
18125;SDS011;53956;52.442;13.284;2023-07-20T14:14:21;3.70;;;0.90;;
18125;SDS011;53956;52.442;13.284;2023-07-20T14:16:47;1.25;;;0.80;;
18125;SDS011;53956;52.442;13.284;2023-07-20T14:19:14;0.95;;;0.73;;
18125;SDS011;53956;52.442;13.284;2023-07-20T14:21:42;2.72;;;0.80;;
18125;SDS011;53956;52.442;13.284;2023-07-20T14:24:09;1.55;;;0.68;;
18125;SDS011;53956;52.442;13.284;2023-07-20T14:26:36;4.15;;;0.80;;
18125;SDS011;53956;52.442;13.284;2023-07-20T14:29:03;2.35;;;0.70;;
18125;SDS011;53956;52.442;13.284;2023-07-20T14:31:29;2.72;;;0.80;;
18125;SDS011;53956;52.442;13.284;2023-07-20T14:33:56;4.70;;;0.88;;
18125;SDS011;53956;52.442;13.284;2023-07-20T14:36:23;1.40;;;0.73;;
18125;SDS011;53956;52.442;13.284;2023-07-20T14:38:51;1.10;;;0.70;;
18125;SDS011;53956;52.442;13.284;2023-07-20T14:41:17;1.30;;;0.80;;